createdAt,value
2018-05-02T00:01:02.314Z,4.1
2018-05-02T00:02:24.167Z,4.1
2018-05-02T00:03:31.371Z,4.2
2018-05-02T00:04:38.590Z,4.1
2018-05-02T00:05:45.590Z,4.1
2018-05-02T00:06:52.711Z,4.1
2018-05-02T00:07:59.654Z,4.1
2018-05-02T00:09:06.870Z,4.1
2018-05-02T00:10:14.071Z,4.1
2018-05-02T00:11:21.267Z,4
2018-05-02T00:12:28.569Z,4
2018-05-02T00:13:36.154Z,4
2018-05-02T00:14:43.731Z,3.9
2018-05-02T00:15:51.170Z,3.9
2018-05-02T00:16:58.380Z,3.8
2018-05-02T00:18:05.776Z,3.8
2018-05-02T00:19:13.142Z,3.8
2018-05-02T00:20:20.086Z,3.8
2018-05-02T00:21:27.286Z,3.7
2018-05-02T00:22:34.216Z,3.6
2018-05-02T00:23:41.417Z,3.6
2018-05-02T00:24:48.713Z,3.6
2018-05-02T00:25:56.057Z,3.6
2018-05-02T00:27:03.066Z,3.6
2018-05-02T00:28:10.491Z,3.6
2018-05-02T00:29:17.700Z,3.6
2018-05-02T00:30:24.900Z,3.7
2018-05-02T00:31:32.100Z,3.6
2018-05-02T00:32:39.342Z,3.6
2018-05-02T00:33:46.731Z,3.6
2018-05-02T00:34:53.691Z,3.6
2018-05-02T00:36:00.938Z,3.6
2018-05-02T00:37:08.340Z,3.6
2018-05-02T00:38:15.479Z,3.6
2018-05-02T00:39:22.619Z,3.5
2018-05-02T00:40:29.819Z,3.6
2018-05-02T00:41:37.019Z,3.5
2018-05-02T00:42:44.070Z,3.5
2018-05-02T00:43:51.198Z,3.5
2018-05-02T00:44:58.502Z,3.5
2018-05-02T00:46:05.954Z,3.5
2018-05-02T00:47:13.162Z,3.5
2018-05-02T00:48:20.460Z,3.5
2018-05-02T00:49:27.855Z,3.5
2018-05-02T00:50:35.057Z,3.5
2018-05-02T00:51:42.255Z,3.5
2018-05-02T00:52:49.454Z,3.5
2018-05-02T00:53:56.654Z,3.5
2018-05-02T00:55:03.845Z,3.5
2018-05-02T00:56:11.055Z,3.5
2018-05-02T00:57:18.250Z,3.5
2018-05-02T00:58:25.446Z,3.5
2018-05-02T00:59:32.595Z,3.5
2018-05-02T01:00:39.768Z,3.4
2018-05-02T01:01:46.975Z,3.4
2018-05-02T01:02:54.174Z,3.5
2018-05-02T01:04:01.094Z,3.5
2018-05-02T01:05:08.024Z,3.5
2018-05-02T01:06:14.946Z,3.5
2018-05-02T01:07:22.151Z,3.4
2018-05-02T01:08:29.365Z,3.4
2018-05-02T01:09:36.626Z,3.5
2018-05-02T01:10:43.617Z,3.4
2018-05-02T01:11:50.971Z,3.4
2018-05-02T01:12:57.953Z,3.4
2018-05-02T01:14:05.173Z,3.3
2018-05-02T01:15:12.368Z,3.3
2018-05-02T01:16:19.598Z,3.2
2018-05-02T01:17:26.818Z,3.2
2018-05-02T01:18:33.743Z,3.2
2018-05-02T01:19:40.941Z,3.1
2018-05-02T01:20:48.184Z,3.2
2018-05-02T01:21:55.428Z,3.2
2018-05-02T01:23:02.639Z,3.2
2018-05-02T01:24:09.848Z,3.2
2018-05-02T01:25:16.933Z,3.1
2018-05-02T01:26:24.315Z,3.1
2018-05-02T01:27:31.516Z,3
2018-05-02T01:28:38.719Z,3
2018-05-02T01:29:45.915Z,3
2018-05-02T01:30:53.114Z,3
2018-05-02T01:32:00.312Z,3
2018-05-02T01:33:07.567Z,3
2018-05-02T01:34:14.683Z,3
2018-05-02T01:35:21.611Z,2.9
2018-05-02T01:36:28.821Z,2.9
2018-05-02T01:37:36.034Z,2.9
2018-05-02T01:38:42.958Z,2.9
2018-05-02T01:39:50.159Z,2.9
2018-05-02T01:40:57.355Z,2.9
2018-05-02T01:42:04.554Z,2.8
2018-05-02T01:43:11.863Z,2.8
2018-05-02T01:44:19.203Z,2.8
2018-05-02T01:45:26.515Z,2.8
2018-05-02T01:46:33.913Z,2.8
2018-05-02T01:47:40.839Z,2.8
2018-05-02T01:48:48.120Z,2.8
2018-05-02T01:49:55.380Z,2.8
2018-05-02T01:51:02.408Z,2.8
2018-05-02T01:52:09.798Z,2.9
2018-05-02T01:53:16.771Z,2.9
2018-05-02T01:54:23.746Z,2.9
2018-05-02T01:55:30.944Z,2.9
2018-05-02T01:56:38.160Z,2.8
2018-05-02T01:57:45.391Z,2.8
2018-05-02T01:58:52.583Z,2.8
2018-05-02T01:59:59.785Z,2.8
2018-05-02T02:01:06.982Z,2.8
2018-05-02T02:02:14.173Z,2.8
2018-05-02T02:03:21.369Z,2.8
2018-05-02T02:04:28.575Z,2.9
2018-05-02T02:05:35.768Z,2.8
2018-05-02T02:06:42.965Z,2.8
2018-05-02T02:07:50.161Z,2.8
2018-05-02T02:08:57.091Z,2.8
2018-05-02T02:10:04.008Z,2.8
2018-05-02T02:11:11.208Z,2.8
2018-05-02T02:12:18.406Z,2.8
2018-05-02T02:13:25.615Z,2.9
2018-05-02T02:14:32.819Z,2.9
2018-05-02T02:15:39.780Z,2.9
2018-05-02T02:16:46.978Z,2.8
2018-05-02T02:17:54.179Z,2.8
2018-05-02T02:19:01.375Z,2.8
2018-05-02T02:20:08.586Z,2.8
2018-05-02T02:21:15.788Z,2.7
2018-05-02T02:22:22.988Z,2.7
2018-05-02T02:23:30.185Z,2.7
2018-05-02T02:24:37.382Z,2.7
2018-05-02T02:25:44.581Z,2.7
2018-05-02T02:26:51.799Z,2.6
2018-05-02T02:27:59.002Z,2.5
2018-05-02T02:29:06.198Z,2.5
2018-05-02T02:30:13.400Z,2.5
2018-05-02T02:31:20.599Z,2.6
2018-05-02T02:32:27.797Z,2.6
2018-05-02T02:33:34.999Z,2.7
2018-05-02T02:34:42.196Z,2.6
2018-05-02T02:35:49.391Z,2.5
2018-05-02T02:36:56.585Z,2.6
2018-05-02T02:38:03.789Z,2.6
2018-05-02T02:39:10.708Z,2.6
2018-05-02T02:40:17.905Z,2.6
2018-05-02T02:41:25.107Z,2.6
2018-05-02T02:42:32.306Z,2.5
2018-05-02T02:43:39.503Z,2.5
2018-05-02T02:44:46.701Z,2.6
2018-05-02T02:45:53.919Z,2.6
2018-05-02T02:47:01.102Z,2.5
2018-05-02T02:48:08.030Z,2.4
2018-05-02T02:49:15.223Z,2.4
2018-05-02T02:50:22.437Z,2.4
2018-05-02T02:51:29.632Z,2.4
2018-05-02T02:52:36.837Z,2.5
2018-05-02T02:53:44.025Z,2.5
2018-05-02T02:54:51.223Z,2.5
2018-05-02T02:55:58.422Z,2.5
2018-05-02T02:57:05.622Z,2.5
2018-05-02T02:58:12.895Z,2.5
2018-05-02T02:59:20.089Z,2.6
2018-05-02T03:00:27.288Z,2.6
2018-05-02T03:01:34.483Z,2.5
2018-05-02T03:02:41.677Z,2.6
2018-05-02T03:03:48.899Z,2.6
2018-05-02T03:04:56.092Z,2.5
2018-05-02T03:06:03.290Z,2.5
2018-05-02T03:07:10.218Z,2.5
2018-05-02T03:08:17.414Z,2.5
2018-05-02T03:09:24.357Z,2.5
2018-05-02T03:10:31.538Z,2.5
2018-05-02T03:11:38.187Z,2.6
2018-05-02T03:12:45.396Z,2.6
2018-05-02T03:13:52.592Z,2.6
2018-05-02T03:14:59.796Z,2.6
2018-05-02T03:16:06.999Z,2.6
2018-05-02T03:17:14.199Z,2.6
2018-05-02T03:18:21.120Z,2.6
2018-05-02T03:19:28.325Z,2.5
2018-05-02T03:20:35.521Z,2.6
2018-05-02T03:21:42.446Z,2.6
2018-05-02T03:22:49.648Z,2.6
2018-05-02T03:23:56.572Z,2.6
2018-05-02T03:25:03.490Z,2.6
2018-05-02T03:26:10.414Z,2.6
2018-05-02T03:27:17.612Z,2.6
2018-05-02T03:28:24.810Z,2.6
2018-05-02T03:29:31.733Z,2.6
2018-05-02T03:30:38.939Z,2.6
2018-05-02T03:31:46.132Z,2.6
2018-05-02T03:32:53.332Z,2.6
2018-05-02T03:34:00.259Z,2.6
2018-05-02T03:35:07.451Z,2.6
2018-05-02T03:36:14.646Z,2.6
2018-05-02T03:37:21.839Z,2.6
2018-05-02T03:38:29.043Z,2.7
2018-05-02T03:39:36.247Z,2.7
2018-05-02T03:40:43.443Z,2.6
2018-05-02T03:41:50.650Z,2.7
2018-05-02T03:42:57.576Z,2.7
2018-05-02T03:44:04.507Z,2.7
2018-05-02T03:45:11.721Z,2.7
2018-05-02T03:46:18.913Z,2.7
2018-05-02T03:47:26.113Z,2.7
2018-05-02T03:48:33.045Z,2.7
2018-05-02T03:49:40.250Z,2.7
2018-05-02T03:50:47.170Z,2.7
2018-05-02T03:51:54.373Z,2.7
2018-05-02T03:53:01.728Z,2.7
2018-05-02T03:54:08.999Z,2.8
2018-05-02T03:55:16.206Z,2.7
2018-05-02T03:56:23.406Z,2.8
2018-05-02T03:57:30.675Z,2.8
2018-05-02T03:58:37.607Z,2.8
2018-05-02T03:59:44.983Z,2.9
2018-05-02T04:00:52.332Z,2.9
2018-05-02T04:01:59.256Z,2.9
2018-05-02T04:03:06.450Z,2.9
2018-05-02T04:04:13.650Z,3
2018-05-02T04:05:20.853Z,3
2018-05-02T04:06:28.047Z,3
2018-05-02T04:07:35.247Z,3
2018-05-02T04:08:42.443Z,3.1
2018-05-02T04:09:49.693Z,3.1
2018-05-02T04:10:56.916Z,3.2
2018-05-02T04:12:04.114Z,3.2
2018-05-02T04:13:11.313Z,3.2
2018-05-02T04:14:18.232Z,3.2
2018-05-02T04:15:25.428Z,3.2
2018-05-02T04:16:32.633Z,3.2
2018-05-02T04:17:39.884Z,3.2
2018-05-02T04:18:47.136Z,3.2
2018-05-02T04:19:54.521Z,3.3
2018-05-02T04:21:01.719Z,3.3
2018-05-02T04:22:08.641Z,3.3
2018-05-02T04:23:15.854Z,3.3
2018-05-02T04:24:23.052Z,3.3
2018-05-02T04:25:29.980Z,3.4
2018-05-02T04:26:37.174Z,3.4
2018-05-02T04:27:44.371Z,3.4
2018-05-02T04:28:51.571Z,3.5
2018-05-02T04:29:58.771Z,3.5
2018-05-02T04:31:05.692Z,3.5
2018-05-02T04:32:12.893Z,3.6
2018-05-02T04:33:20.096Z,3.6
2018-05-02T04:34:27.298Z,3.7
2018-05-02T04:35:34.496Z,3.7
2018-05-02T04:36:41.693Z,3.8
2018-05-02T04:37:48.897Z,3.8
2018-05-02T04:38:56.094Z,3.9
2018-05-02T04:40:03.294Z,3.9
2018-05-02T04:41:10.668Z,4
2018-05-02T04:42:18.202Z,4
2018-05-02T04:43:25.399Z,4
2018-05-02T04:44:32.600Z,4
2018-05-02T04:45:39.799Z,4.1
2018-05-02T04:46:47.002Z,4.1
2018-05-02T04:47:54.204Z,4.2
2018-05-02T04:49:01.405Z,4.2
2018-05-02T04:50:08.601Z,4.2
2018-05-02T04:51:15.809Z,4.3
2018-05-02T04:52:22.746Z,4.3
2018-05-02T04:53:29.946Z,4.4
2018-05-02T04:54:37.145Z,4.4
2018-05-02T04:55:44.072Z,4.5
2018-05-02T04:56:51.273Z,4.5
2018-05-02T04:57:58.189Z,4.6
2018-05-02T04:59:05.111Z,4.6
2018-05-02T05:00:12.045Z,4.6
2018-05-02T05:01:19.247Z,4.7
2018-05-02T05:02:26.446Z,4.7
2018-05-02T05:03:33.657Z,4.7
2018-05-02T05:04:40.857Z,4.8
2018-05-02T05:05:48.067Z,4.9
2018-05-02T05:06:55.267Z,4.9
2018-05-02T05:08:02.186Z,4.9
2018-05-02T05:09:08.846Z,5
2018-05-02T05:10:16.050Z,5
2018-05-02T05:11:23.289Z,5
2018-05-02T05:12:30.488Z,5.1
2018-05-02T05:13:37.688Z,5.1
2018-05-02T05:14:44.903Z,5.2
2018-05-02T05:15:52.104Z,5.2
2018-05-02T05:16:59.301Z,5.2
2018-05-02T05:18:06.498Z,5.3
2018-05-02T05:19:13.421Z,5.3
2018-05-02T05:20:20.345Z,5.3
2018-05-02T05:21:27.544Z,5.4
2018-05-02T05:22:34.750Z,5.4
2018-05-02T05:23:41.949Z,5.5
2018-05-02T05:24:49.212Z,5.5
2018-05-02T05:25:56.415Z,5.5
2018-05-02T05:27:03.614Z,5.5
2018-05-02T05:28:10.908Z,5.6
2018-05-02T05:29:18.228Z,5.6
2018-05-02T05:30:25.418Z,5.7
2018-05-02T05:31:32.622Z,5.7
2018-05-02T05:32:39.819Z,5.8
2018-05-02T05:33:47.046Z,5.8
2018-05-02T05:34:53.972Z,5.9
2018-05-02T05:36:01.170Z,5.9
2018-05-02T05:37:08.379Z,6
2018-05-02T05:38:15.793Z,6.1
2018-05-02T05:39:22.996Z,6.1
2018-05-02T05:40:30.201Z,6.1
2018-05-02T05:41:37.405Z,6.2
2018-05-02T05:42:44.607Z,6.3
2018-05-02T05:43:51.579Z,6.3
2018-05-02T05:44:58.775Z,6.3
2018-05-02T05:46:05.699Z,6.3
2018-05-02T05:47:12.901Z,6.3
2018-05-02T05:48:20.318Z,6.3
2018-05-02T05:49:27.525Z,6.4
2018-05-02T05:50:34.732Z,6.5
2018-05-02T05:51:41.927Z,6.5
2018-05-02T05:52:49.133Z,6.5
2018-05-02T05:53:56.451Z,6.6
2018-05-02T05:55:03.817Z,6.6
2018-05-02T05:56:11.024Z,6.6
2018-05-02T05:57:18.216Z,6.6
2018-05-02T05:58:25.417Z,6.7
2018-05-02T05:59:32.623Z,6.7
2018-05-02T06:00:39.828Z,6.7
2018-05-02T06:01:47.092Z,6.8
2018-05-02T06:02:54.302Z,6.9
2018-05-02T06:04:01.505Z,7
2018-05-02T06:05:08.812Z,7.1
2018-05-02T06:06:16.059Z,7.1
2018-05-02T06:07:23.262Z,7.2
2018-05-02T06:08:30.463Z,7.2
2018-05-02T06:09:37.667Z,7.2
2018-05-02T06:10:44.871Z,7.2
2018-05-02T06:11:52.070Z,7.3
2018-05-02T06:12:59.268Z,7.4
2018-05-02T06:14:06.470Z,7.4
2018-05-02T06:15:13.670Z,7.5
2018-05-02T06:16:20.597Z,7.5
2018-05-02T06:17:27.824Z,7.6
2018-05-02T06:18:35.025Z,7.6
2018-05-02T06:19:41.678Z,7.7
2018-05-02T06:20:48.956Z,7.7
2018-05-02T06:21:55.901Z,7.7
2018-05-02T06:23:02.805Z,7.8
2018-05-02T06:24:10.007Z,7.8
2018-05-02T06:25:17.210Z,7.9
2018-05-02T06:26:24.408Z,8
2018-05-02T06:27:31.610Z,8.1
2018-05-02T06:28:38.810Z,8.2
2018-05-02T06:29:46.013Z,8.3
2018-05-02T06:30:53.210Z,8.3
2018-05-02T06:32:00.742Z,8.4
2018-05-02T06:33:08.158Z,8.4
2018-05-02T06:34:15.366Z,8.5
2018-05-02T06:35:22.571Z,8.6
2018-05-02T06:36:29.766Z,8.8
2018-05-02T06:37:37.109Z,8.8
2018-05-02T06:38:44.541Z,8.8
2018-05-02T06:39:51.469Z,8.7
2018-05-02T06:40:58.669Z,8.7
2018-05-02T06:42:05.867Z,8.6
2018-05-02T06:43:13.070Z,8.7
2018-05-02T06:44:19.996Z,8.8
2018-05-02T06:45:26.938Z,8.9
2018-05-02T06:46:33.872Z,9
2018-05-02T06:47:40.798Z,9.2
2018-05-02T06:48:47.996Z,9.4
2018-05-02T06:49:55.200Z,9.4
2018-05-02T06:51:02.401Z,9.4
2018-05-02T06:52:09.600Z,9.5
2018-05-02T06:53:16.810Z,9.4
2018-05-02T06:54:24.006Z,9.3
2018-05-02T06:55:30.937Z,9.3
2018-05-02T06:56:38.137Z,9.2
2018-05-02T06:57:45.332Z,9.1
2018-05-02T06:58:52.264Z,9.2
2018-05-02T06:59:59.466Z,9.2
2018-05-02T07:01:06.666Z,9.3
2018-05-02T07:02:13.864Z,9.4
2018-05-02T07:03:21.070Z,9.4
2018-05-02T07:04:28.001Z,9.4
2018-05-02T07:05:35.204Z,9.3
2018-05-02T07:06:42.408Z,9.4
2018-05-02T07:07:49.340Z,9.5
2018-05-02T07:08:56.535Z,9.5
2018-05-02T07:10:03.746Z,9.5
2018-05-02T07:11:10.949Z,9.4
2018-05-02T07:12:18.152Z,9.3
2018-05-02T07:13:24.814Z,9.2
2018-05-02T07:14:31.795Z,9.2
2018-05-02T07:15:38.998Z,9.1
2018-05-02T07:16:46.199Z,9.2
2018-05-02T07:17:53.402Z,9.2
2018-05-02T07:19:00.610Z,9.3
2018-05-02T07:20:07.818Z,9.5
2018-05-02T07:21:15.024Z,9.6
2018-05-02T07:22:22.234Z,9.7
2018-05-02T07:23:29.161Z,9.7
2018-05-02T07:24:36.367Z,9.9
2018-05-02T07:25:43.570Z,10.1
2018-05-02T07:26:50.773Z,10.2
2018-05-02T07:27:57.674Z,10.2
2018-05-02T07:29:04.882Z,10.3
2018-05-02T07:30:12.096Z,10.5
2018-05-02T07:31:19.293Z,10.7
2018-05-02T07:32:26.555Z,10.9
2018-05-02T07:33:33.772Z,11
2018-05-02T07:34:40.696Z,11.1
2018-05-02T07:35:47.910Z,11.2
2018-05-02T07:36:55.114Z,11.1
2018-05-02T07:38:02.048Z,11
2018-05-02T07:39:09.247Z,11
2018-05-02T07:40:16.457Z,11.2
2018-05-02T07:41:23.655Z,11.3
2018-05-02T07:42:30.855Z,11.3
2018-05-02T07:43:38.116Z,11.4
2018-05-02T07:44:45.321Z,11.6
2018-05-02T07:45:52.520Z,11.6
2018-05-02T07:46:59.723Z,11.7
2018-05-02T07:48:06.931Z,11.5
2018-05-02T07:49:14.134Z,11.4
2018-05-02T07:50:21.333Z,11.5
2018-05-02T07:51:28.536Z,11.8
2018-05-02T07:52:35.623Z,11.9
2018-05-02T07:53:42.874Z,12.2
2018-05-02T07:54:50.078Z,12.3
2018-05-02T07:55:57.298Z,12.2
2018-05-02T07:57:04.656Z,12.2
2018-05-02T07:58:11.588Z,12.1
2018-05-02T07:59:18.787Z,12.2
2018-05-02T08:00:25.449Z,12.3
2018-05-02T08:01:32.653Z,12.5
2018-05-02T08:02:39.870Z,12.6
2018-05-02T08:03:47.071Z,12.7
2018-05-02T08:04:54.276Z,12.6
2018-05-02T08:06:01.477Z,12.7
2018-05-02T08:07:08.682Z,12.8
2018-05-02T08:08:15.880Z,12.8
2018-05-02T08:09:23.087Z,12.7
2018-05-02T08:10:30.022Z,12.6
2018-05-02T08:11:37.242Z,12.6
2018-05-02T08:12:44.451Z,12.4
2018-05-02T08:13:51.658Z,12.4
2018-05-02T08:14:58.863Z,12.5
2018-05-02T08:16:06.068Z,12.5
2018-05-02T08:17:13.272Z,12.4
2018-05-02T08:18:20.480Z,12.3
2018-05-02T08:19:27.681Z,12.3
2018-05-02T08:20:34.889Z,12.2
2018-05-02T08:21:42.091Z,12.1
2018-05-02T08:22:49.291Z,12.1
2018-05-02T08:23:56.514Z,12.3
2018-05-02T08:25:03.726Z,12.4
2018-05-02T08:26:10.647Z,12.2
2018-05-02T08:27:17.853Z,11.9
2018-05-02T08:28:25.074Z,11.7
2018-05-02T08:29:32.286Z,11.7
2018-05-02T08:30:39.510Z,11.7
2018-05-02T08:31:46.717Z,11.9
2018-05-02T08:32:53.947Z,12.2
2018-05-02T08:34:01.273Z,12.4
2018-05-02T08:35:08.476Z,12.5
2018-05-02T08:36:15.678Z,12.6
2018-05-02T08:37:22.083Z,12.7
2018-05-02T08:38:29.290Z,12.7
2018-05-02T08:39:36.493Z,12.8
2018-05-02T08:40:43.435Z,12.7
2018-05-02T08:41:50.661Z,12.8
2018-05-02T08:42:57.599Z,13
2018-05-02T08:44:04.804Z,12.9
2018-05-02T08:45:11.781Z,13
2018-05-02T08:46:18.704Z,13.1
2018-05-02T08:47:25.924Z,13.3
2018-05-02T08:48:33.126Z,13.6
2018-05-02T08:49:39.787Z,13.8
2018-05-02T08:50:46.724Z,14
2018-05-02T08:51:53.934Z,13.9
2018-05-02T08:53:00.600Z,13.6
2018-05-02T08:54:07.518Z,13.8
2018-05-02T08:55:14.722Z,14.1
2018-05-02T08:56:21.649Z,13.9
2018-05-02T08:57:28.623Z,13.9
2018-05-02T08:58:36.033Z,13.8
2018-05-02T08:59:43.233Z,14.1
2018-05-02T09:00:50.453Z,14.1
2018-05-02T09:01:57.386Z,14.3
2018-05-02T09:03:04.611Z,14.5
2018-05-02T09:04:11.812Z,14.7
2018-05-02T09:05:18.747Z,14.9
2018-05-02T09:06:25.954Z,15
2018-05-02T09:07:33.182Z,15.1
2018-05-02T09:08:40.119Z,15
2018-05-02T09:09:47.323Z,15.2
2018-05-02T09:10:54.540Z,15
2018-05-02T09:12:01.754Z,15.1
2018-05-02T09:13:08.950Z,15.1
2018-05-02T09:14:16.442Z,15
2018-05-02T09:15:23.645Z,15.1
2018-05-02T09:16:30.570Z,15.1
2018-05-02T09:17:37.499Z,15.1
2018-05-02T09:18:44.711Z,15.2
2018-05-02T09:19:51.638Z,15
2018-05-02T09:20:58.843Z,15.3
2018-05-02T09:22:06.051Z,15.6
2018-05-02T09:23:13.268Z,16
2018-05-02T09:24:20.470Z,16
2018-05-02T09:25:27.686Z,16.1
2018-05-02T09:26:34.888Z,16.3
2018-05-02T09:27:42.093Z,16.7
2018-05-02T09:28:49.024Z,16.8
2018-05-02T09:29:56.240Z,16.7
2018-05-02T09:31:03.446Z,16.7
2018-05-02T09:32:10.386Z,16.7
2018-05-02T09:33:17.597Z,16.3
2018-05-02T09:34:24.799Z,16.1
2018-05-02T09:35:32.073Z,16.4
2018-05-02T09:36:39.322Z,16.7
2018-05-02T09:37:46.537Z,17
2018-05-02T09:38:53.754Z,17.1
2018-05-02T09:40:00.957Z,16.5
2018-05-02T09:41:08.184Z,16.2
2018-05-02T09:42:15.407Z,16.3
2018-05-02T09:43:22.617Z,16.7
2018-05-02T09:44:29.551Z,16.8
2018-05-02T09:45:36.762Z,16.8
2018-05-02T09:46:43.977Z,16.7
2018-05-02T09:47:51.205Z,17
2018-05-02T09:48:57.885Z,16.8
2018-05-02T09:50:05.133Z,16.8
2018-05-02T09:51:12.354Z,16.5
2018-05-02T09:52:19.564Z,16.7
2018-05-02T09:53:26.771Z,16.5
2018-05-02T09:54:33.978Z,16.6
2018-05-02T09:55:41.187Z,16.8
2018-05-02T09:56:48.393Z,16.8
2018-05-02T09:57:55.335Z,16.7
2018-05-02T09:59:02.555Z,16.7
2018-05-02T10:00:09.769Z,17
2018-05-02T10:01:16.978Z,17.1
2018-05-02T10:02:24.184Z,17.4
2018-05-02T10:03:31.394Z,17.7
2018-05-02T10:04:38.627Z,17.7
2018-05-02T10:05:45.844Z,17.5
2018-05-02T10:06:53.052Z,17.4
2018-05-02T10:08:00.262Z,17.3
2018-05-02T10:09:07.195Z,17.1
2018-05-02T10:10:14.414Z,17.3
2018-05-02T10:11:21.620Z,17.6
2018-05-02T10:12:28.953Z,17.9
2018-05-02T10:13:36.245Z,18
2018-05-02T10:14:43.453Z,18
2018-05-02T10:15:50.660Z,17.5
2018-05-02T10:16:57.594Z,17.2
2018-05-02T10:18:04.805Z,17.4
2018-05-02T10:19:12.009Z,17.7
2018-05-02T10:20:18.939Z,17.9
2018-05-02T10:21:26.146Z,18
2018-05-02T10:22:33.355Z,18.2
2018-05-02T10:23:40.289Z,18.3
2018-05-02T10:24:47.496Z,18.1
2018-05-02T10:25:54.745Z,17.7
2018-05-02T10:27:01.130Z,17.7
2018-05-02T10:28:08.339Z,17.9
2018-05-02T10:29:15.338Z,18.1
2018-05-02T10:30:22.549Z,18.3
2018-05-02T10:31:29.763Z,18.3
2018-05-02T10:32:36.971Z,18.1
2018-05-02T10:33:44.185Z,17.6
2018-05-02T10:34:51.396Z,17.5
2018-05-02T10:35:58.605Z,17.6
2018-05-02T10:37:05.833Z,17.6
2018-05-02T10:38:12.502Z,17.6
2018-05-02T10:39:19.708Z,17.4
2018-05-02T10:40:26.916Z,17.5
2018-05-02T10:41:33.853Z,17.9
2018-05-02T10:42:40.788Z,18
2018-05-02T10:43:47.998Z,18.1
2018-05-02T10:44:55.206Z,18.1
2018-05-02T10:46:02.420Z,18.1
2018-05-02T10:47:09.356Z,18
2018-05-02T10:48:16.569Z,18.2
2018-05-02T10:49:23.781Z,18.5
2018-05-02T10:50:30.870Z,18.4
2018-05-02T10:51:37.614Z,17.9
2018-05-02T10:52:44.822Z,17.6
2018-05-02T10:53:52.035Z,17.5
2018-05-02T10:54:59.238Z,17.3
2018-05-02T10:56:06.479Z,17.1
2018-05-02T10:57:13.687Z,17.6
2018-05-02T10:58:20.896Z,17.8
2018-05-02T10:59:28.105Z,17.9
2018-05-02T11:00:35.041Z,18.1
2018-05-02T11:01:42.258Z,18.1
2018-05-02T11:02:49.464Z,18.3
2018-05-02T11:03:56.401Z,18.3
2018-05-02T11:05:03.611Z,18.3
2018-05-02T11:06:10.834Z,18
2018-05-02T11:07:18.043Z,18
2018-05-02T11:08:25.386Z,18.2
2018-05-02T11:09:32.757Z,18.3
2018-05-02T11:10:39.979Z,18.2
2018-05-02T11:11:47.184Z,18.3
2018-05-02T11:12:54.394Z,18.3
2018-05-02T11:14:01.610Z,17.7
2018-05-02T11:15:08.581Z,17.7
2018-05-02T11:16:15.789Z,17.9
2018-05-02T11:17:22.999Z,18.2
2018-05-02T11:18:30.208Z,18.5
2018-05-02T11:19:37.418Z,18.7
2018-05-02T11:20:44.628Z,18.7
2018-05-02T11:21:51.843Z,17.8
2018-05-02T11:22:59.129Z,18
2018-05-02T11:24:06.338Z,18.4
2018-05-02T11:25:13.549Z,18.3
2018-05-02T11:26:20.487Z,18.4
2018-05-02T11:27:27.697Z,18.5
2018-05-02T11:28:34.911Z,18.9
2018-05-02T11:29:41.850Z,18.5
2018-05-02T11:30:49.066Z,18.4
2018-05-02T11:31:56.274Z,18.1
2018-05-02T11:33:03.486Z,17.7
2018-05-02T11:34:10.693Z,17.5
2018-05-02T11:35:17.923Z,17.2
2018-05-02T11:36:25.135Z,17.1
2018-05-02T11:37:32.362Z,17.2
2018-05-02T11:38:39.293Z,17.1
2018-05-02T11:39:46.507Z,17.1
2018-05-02T11:40:53.775Z,17
2018-05-02T11:42:00.989Z,16.9
2018-05-02T11:43:08.199Z,17.3
2018-05-02T11:44:15.456Z,17.3
2018-05-02T11:45:22.676Z,17.4
2018-05-02T11:46:29.615Z,17.7
2018-05-02T11:47:36.548Z,17.8
2018-05-02T11:48:43.757Z,17.8
2018-05-02T11:49:50.417Z,17.7
2018-05-02T11:50:57.625Z,17.9
2018-05-02T11:52:04.570Z,18.2
2018-05-02T11:53:11.778Z,18.6
2018-05-02T11:54:18.991Z,18.6
2018-05-02T11:55:26.216Z,18.6
2018-05-02T11:56:33.428Z,18.9
2018-05-02T11:57:40.669Z,19.1
2018-05-02T11:58:47.883Z,19
2018-05-02T11:59:55.097Z,18.5
2018-05-02T12:01:02.053Z,18.3
2018-05-02T12:02:09.266Z,18.6
2018-05-02T12:03:16.490Z,18.8
2018-05-02T12:04:23.702Z,18.9
2018-05-02T12:05:30.920Z,19.1
2018-05-02T12:06:38.129Z,19.2
2018-05-02T12:07:45.064Z,19.1
2018-05-02T12:08:52.433Z,18.8
2018-05-02T12:09:59.636Z,19
2018-05-02T12:11:06.845Z,18.9
2018-05-02T12:12:14.063Z,18.7
2018-05-02T12:13:21.005Z,18.3
2018-05-02T12:14:28.229Z,18.5
2018-05-02T12:15:35.444Z,18.9
2018-05-02T12:16:42.661Z,19.4
2018-05-02T12:17:49.893Z,19.8
2018-05-02T12:18:57.101Z,20
2018-05-02T12:20:04.326Z,20.1
2018-05-02T12:21:11.553Z,20.1
2018-05-02T12:22:18.492Z,20.3
2018-05-02T12:23:25.707Z,20.3
2018-05-02T12:24:32.646Z,19.4
2018-05-02T12:25:39.865Z,19
2018-05-02T12:26:47.110Z,19.2
2018-05-02T12:27:54.448Z,19.2
2018-05-02T12:29:01.702Z,19.4
2018-05-02T12:30:08.918Z,19.6
2018-05-02T12:31:16.130Z,19.5
2018-05-02T12:32:23.334Z,19.7
2018-05-02T12:33:30.549Z,20.3
2018-05-02T12:34:37.753Z,20.7
2018-05-02T12:35:44.962Z,20.1
2018-05-02T12:36:52.247Z,19.9
2018-05-02T12:37:59.451Z,19.5
2018-05-02T12:39:06.664Z,19.9
2018-05-02T12:40:13.879Z,20.6
2018-05-02T12:41:21.104Z,20.7
2018-05-02T12:42:28.326Z,20.8
2018-05-02T12:43:35.539Z,20.6
2018-05-02T12:44:42.750Z,20.6
2018-05-02T12:45:49.970Z,20.7
2018-05-02T12:46:56.902Z,20.6
2018-05-02T12:48:04.117Z,20
2018-05-02T12:49:11.060Z,20.1
2018-05-02T12:50:18.274Z,20.3
2018-05-02T12:51:25.490Z,20.5
2018-05-02T12:52:32.427Z,19.7
2018-05-02T12:53:39.634Z,19.8
2018-05-02T12:54:46.573Z,20.5
2018-05-02T12:55:53.800Z,20.8
2018-05-02T12:57:01.055Z,20.7
2018-05-02T12:58:08.278Z,21.1
2018-05-02T12:59:15.489Z,21.2
2018-05-02T13:00:22.703Z,20.9
2018-05-02T13:01:29.931Z,20.8
2018-05-02T13:02:37.409Z,21.1
2018-05-02T13:03:44.622Z,20.8
2018-05-02T13:04:51.287Z,20.6
2018-05-02T13:05:58.501Z,21
2018-05-02T13:07:05.713Z,21
2018-05-02T13:08:12.872Z,20.4
2018-05-02T13:09:20.197Z,20.3
2018-05-02T13:10:27.410Z,21
2018-05-02T13:11:34.623Z,21.3
2018-05-02T13:12:41.834Z,21.8
2018-05-02T13:13:49.049Z,22
2018-05-02T13:14:56.261Z,21.4
2018-05-02T13:16:03.471Z,21.3
2018-05-02T13:17:10.690Z,21.5
2018-05-02T13:18:17.643Z,21.6
2018-05-02T13:19:24.853Z,21.6
2018-05-02T13:20:32.071Z,21.4
2018-05-02T13:21:39.288Z,21.6
2018-05-02T13:22:46.232Z,21.8
2018-05-02T13:23:53.448Z,21.9
2018-05-02T13:25:00.654Z,21.7
2018-05-02T13:26:07.867Z,21.9
2018-05-02T13:27:15.080Z,21.9
2018-05-02T13:28:22.309Z,22.1
2018-05-02T13:29:29.529Z,22.3
2018-05-02T13:30:36.743Z,22.1
2018-05-02T13:31:43.954Z,22.3
2018-05-02T13:32:50.894Z,22.3
2018-05-02T13:33:58.108Z,22.2
2018-05-02T13:35:05.046Z,22.1
2018-05-02T13:36:12.261Z,22.1
2018-05-02T13:37:19.473Z,22
2018-05-02T13:38:26.685Z,22
2018-05-02T13:39:33.902Z,21.7
2018-05-02T13:40:41.118Z,21.3
2018-05-02T13:41:48.337Z,21.4
2018-05-02T13:42:55.538Z,21.7
2018-05-02T13:44:02.750Z,21.9
2018-05-02T13:45:09.684Z,21.1
2018-05-02T13:46:16.928Z,20.8
2018-05-02T13:47:24.137Z,20.8
2018-05-02T13:48:31.350Z,20.8
2018-05-02T13:49:38.565Z,20.7
2018-05-02T13:50:45.774Z,20.3
2018-05-02T13:51:52.983Z,20.5
2018-05-02T13:53:00.199Z,20.7
2018-05-02T13:54:06.599Z,20.8
2018-05-02T13:55:13.807Z,21.2
2018-05-02T13:56:21.026Z,21.6
2018-05-02T13:57:28.233Z,21.6
2018-05-02T13:58:35.453Z,21.4
2018-05-02T13:59:42.666Z,21.4
2018-05-02T14:00:49.962Z,21.4
2018-05-02T14:01:56.977Z,21.3
2018-05-02T14:03:04.189Z,21.2
2018-05-02T14:04:11.409Z,21.2
2018-05-02T14:05:18.635Z,21.2
2018-05-02T14:06:25.842Z,21
2018-05-02T14:07:33.053Z,20.7
2018-05-02T14:08:40.267Z,20.5
2018-05-02T14:09:47.472Z,20.6
2018-05-02T14:10:54.681Z,20.8
2018-05-02T14:12:01.888Z,21
2018-05-02T14:13:09.108Z,21
2018-05-02T14:14:16.317Z,20.8
2018-05-02T14:15:23.539Z,20.8
2018-05-02T14:16:30.755Z,20.8
2018-05-02T14:17:37.968Z,20.8
2018-05-02T14:18:45.178Z,20.9
2018-05-02T14:19:52.394Z,20.9
2018-05-02T14:20:59.629Z,20.9
2018-05-02T14:22:06.840Z,21
2018-05-02T14:23:14.059Z,20.9
2018-05-02T14:24:20.996Z,20.8
2018-05-02T14:25:28.215Z,20.7
2018-05-02T14:26:35.168Z,20.1
2018-05-02T14:27:42.387Z,19.9
2018-05-02T14:28:49.328Z,19.8
2018-05-02T14:29:56.540Z,19.7
2018-05-02T14:31:03.482Z,19.6
2018-05-02T14:32:10.703Z,19.7
2018-05-02T14:33:17.647Z,19.8
2018-05-02T14:34:24.862Z,19.9
2018-05-02T14:35:32.081Z,20
2018-05-02T14:36:39.294Z,20
2018-05-02T14:37:46.232Z,20.1
2018-05-02T14:38:53.454Z,20.1
2018-05-02T14:40:00.381Z,20
2018-05-02T14:41:07.593Z,20
2018-05-02T14:42:14.527Z,20.1
2018-05-02T14:43:21.736Z,20
2018-05-02T14:44:28.677Z,19.9
2018-05-02T14:45:35.890Z,19.9
2018-05-02T14:46:42.826Z,19.8
2018-05-02T14:47:50.036Z,19.8
2018-05-02T14:48:57.310Z,19.8
2018-05-02T14:50:04.523Z,19.8
2018-05-02T14:51:11.738Z,19.8
2018-05-02T14:52:18.947Z,19.9
2018-05-02T14:53:26.154Z,19.9
2018-05-02T14:54:33.265Z,19.8
2018-05-02T14:55:40.584Z,19.8
2018-05-02T14:56:47.796Z,19.9
2018-05-02T14:57:54.734Z,19.9
2018-05-02T14:59:01.953Z,19.9
2018-05-02T15:00:09.163Z,19.7
2018-05-02T15:01:16.387Z,19.7
2018-05-02T15:02:23.691Z,19.6
2018-05-02T15:03:30.947Z,19.6
2018-05-02T15:04:38.159Z,19.6
2018-05-02T15:05:45.374Z,19.5
2018-05-02T15:06:52.311Z,19.5
2018-05-02T15:07:59.522Z,19.5
2018-05-02T15:09:06.731Z,19.5
2018-05-02T15:10:13.942Z,19.4
2018-05-02T15:11:21.182Z,19.3
2018-05-02T15:12:28.394Z,19.3
2018-05-02T15:13:35.604Z,19.2
2018-05-02T15:14:42.813Z,19.1